sensor_id;sensor_type;location;lat;lon;timestamp;P1;durP1;ratioP1;P2;durP2;ratioP2
67156;SDS011;54086;50.126;8.710;2023-12-20T00:01:02;12.50;;;6.20;;
67156;SDS011;54086;50.126;8.710;2023-12-20T00:03:27;13.23;;;6.15;;
67156;SDS011;54086;50.126;8.710;2023-12-20T00:05:53;14.17;;;7.07;;
67156;SDS011;54086;50.126;8.710;2023-12-20T00:08:18;13.13;;;6.30;;
67156;SDS011;54086;50.126;8.710;2023-12-20T00:10:44;13.57;;;6.00;;
67156;SDS011;54086;50.126;8.710;2023-12-20T00:13:10;12.15;;;6.18;;
67156;SDS011;54086;50.126;8.710;2023-12-20T00:15:35;12.75;;;6.40;;
67156;SDS011;54086;50.126;8.710;2023-12-20T00:18:01;11.30;;;5.60;;
67156;SDS011;54086;50.126;8.710;2023-12-20T00:20:27;11.57;;;5.63;;
67156;SDS011;54086;50.126;8.710;2023-12-20T00:22:56;13.43;;;5.50;;
67156;SDS011;54086;50.126;8.710;2023-12-20T00:25:25;12.83;;;5.87;;
67156;SDS011;54086;50.126;8.710;2023-12-20T00:27:51;11.05;;;5.47;;
67156;SDS011;54086;50.126;8.710;2023-12-20T00:30:17;12.60;;;5.80;;
67156;SDS011;54086;50.126;8.710;2023-12-20T00:32:43;11.83;;;5.87;;
67156;SDS011;54086;50.126;8.710;2023-12-20T00:35:15;13.18;;;5.75;;
67156;SDS011;54086;50.126;8.710;2023-12-20T00:37:41;13.13;;;5.65;;
67156;SDS011;54086;50.126;8.710;2023-12-20T00:40:08;10.38;;;5.00;;
67156;SDS011;54086;50.126;8.710;2023-12-20T00:42:34;11.55;;;5.13;;
67156;SDS011;54086;50.126;8.710;2023-12-20T00:45:01;12.27;;;5.37;;
67156;SDS011;54086;50.126;8.710;2023-12-20T00:47:29;9.73;;;4.90;;
67156;SDS011;54086;50.126;8.710;2023-12-20T00:49:55;10.82;;;5.20;;
67156;SDS011;54086;50.126;8.710;2023-12-20T00:52:29;10.63;;;5.23;;
67156;SDS011;54086;50.126;8.710;2023-12-20T00:54:58;11.77;;;5.43;;
67156;SDS011;54086;50.126;8.710;2023-12-20T00:57:24;11.52;;;5.03;;
67156;SDS011;54086;50.126;8.710;2023-12-20T00:59:50;12.30;;;5.80;;
67156;SDS011;54086;50.126;8.710;2023-12-20T01:02:16;10.48;;;4.93;;
67156;SDS011;54086;50.126;8.710;2023-12-20T01:04:41;10.63;;;4.67;;
67156;SDS011;54086;50.126;8.710;2023-12-20T01:07:07;10.93;;;5.10;;
67156;SDS011;54086;50.126;8.710;2023-12-20T01:09:33;9.85;;;4.93;;
67156;SDS011;54086;50.126;8.710;2023-12-20T01:11:58;10.60;;;4.40;;
67156;SDS011;54086;50.126;8.710;2023-12-20T01:14:24;10.35;;;4.60;;
67156;SDS011;54086;50.126;8.710;2023-12-20T01:16:49;10.13;;;4.83;;
67156;SDS011;54086;50.126;8.710;2023-12-20T01:19:15;12.87;;;5.43;;
67156;SDS011;54086;50.126;8.710;2023-12-20T01:21:41;11.60;;;5.03;;
67156;SDS011;54086;50.126;8.710;2023-12-20T01:24:06;10.33;;;4.93;;
67156;SDS011;54086;50.126;8.710;2023-12-20T01:26:32;10.47;;;4.97;;
67156;SDS011;54086;50.126;8.710;2023-12-20T01:28:57;10.10;;;5.15;;
67156;SDS011;54086;50.126;8.710;2023-12-20T01:31:22;10.10;;;4.90;;
67156;SDS011;54086;50.126;8.710;2023-12-20T01:33:48;9.33;;;4.43;;
67156;SDS011;54086;50.126;8.710;2023-12-20T01:36:16;9.90;;;4.40;;
67156;SDS011;54086;50.126;8.710;2023-12-20T01:38:42;9.18;;;4.15;;
67156;SDS011;54086;50.126;8.710;2023-12-20T01:41:07;9.97;;;4.77;;
67156;SDS011;54086;50.126;8.710;2023-12-20T01:43:32;9.07;;;4.33;;
67156;SDS011;54086;50.126;8.710;2023-12-20T01:45:58;10.33;;;4.57;;
67156;SDS011;54086;50.126;8.710;2023-12-20T01:48:24;8.93;;;4.13;;
67156;SDS011;54086;50.126;8.710;2023-12-20T01:50:50;10.45;;;4.53;;
67156;SDS011;54086;50.126;8.710;2023-12-20T01:53:16;9.80;;;4.38;;
67156;SDS011;54086;50.126;8.710;2023-12-20T01:55:44;8.80;;;4.30;;
67156;SDS011;54086;50.126;8.710;2023-12-20T01:58:10;9.57;;;4.47;;
67156;SDS011;54086;50.126;8.710;2023-12-20T02:00:40;9.18;;;4.60;;
67156;SDS011;54086;50.126;8.710;2023-12-20T02:03:05;8.63;;;4.17;;
67156;SDS011;54086;50.126;8.710;2023-12-20T02:05:35;8.63;;;4.10;;
67156;SDS011;54086;50.126;8.710;2023-12-20T02:08:03;10.93;;;4.82;;
67156;SDS011;54086;50.126;8.710;2023-12-20T02:10:29;8.45;;;4.30;;
67156;SDS011;54086;50.126;8.710;2023-12-20T02:12:54;8.83;;;4.13;;
67156;SDS011;54086;50.126;8.710;2023-12-20T02:15:20;10.37;;;4.30;;
67156;SDS011;54086;50.126;8.710;2023-12-20T02:17:46;8.87;;;3.97;;
67156;SDS011;54086;50.126;8.710;2023-12-20T02:20:13;11.33;;;4.90;;
67156;SDS011;54086;50.126;8.710;2023-12-20T02:22:38;10.38;;;4.75;;
67156;SDS011;54086;50.126;8.710;2023-12-20T02:25:04;9.80;;;4.30;;
67156;SDS011;54086;50.126;8.710;2023-12-20T02:27:29;9.13;;;3.97;;
67156;SDS011;54086;50.126;8.710;2023-12-20T02:29:55;9.00;;;4.00;;
67156;SDS011;54086;50.126;8.710;2023-12-20T02:32:21;10.97;;;4.57;;
67156;SDS011;54086;50.126;8.710;2023-12-20T02:34:47;8.52;;;3.80;;
67156;SDS011;54086;50.126;8.710;2023-12-20T02:37:13;8.40;;;3.90;;
67156;SDS011;54086;50.126;8.710;2023-12-20T02:39:39;8.20;;;3.60;;
67156;SDS011;54086;50.126;8.710;2023-12-20T02:42:04;9.30;;;3.67;;
67156;SDS011;54086;50.126;8.710;2023-12-20T02:44:30;7.50;;;3.70;;
67156;SDS011;54086;50.126;8.710;2023-12-20T02:46:55;7.80;;;3.50;;
67156;SDS011;54086;50.126;8.710;2023-12-20T02:49:20;8.20;;;3.90;;
67156;SDS011;54086;50.126;8.710;2023-12-20T02:51:46;8.07;;;3.30;;
67156;SDS011;54086;50.126;8.710;2023-12-20T02:54:11;8.75;;;3.55;;
67156;SDS011;54086;50.126;8.710;2023-12-20T02:56:37;7.97;;;3.70;;
67156;SDS011;54086;50.126;8.710;2023-12-20T02:59:02;7.90;;;3.60;;
67156;SDS011;54086;50.126;8.710;2023-12-20T03:01:30;8.20;;;3.70;;
67156;SDS011;54086;50.126;8.710;2023-12-20T03:03:56;8.23;;;3.60;;
67156;SDS011;54086;50.126;8.710;2023-12-20T03:06:21;8.07;;;3.57;;
67156;SDS011;54086;50.126;8.710;2023-12-20T03:08:46;8.33;;;3.23;;
67156;SDS011;54086;50.126;8.710;2023-12-20T03:11:12;8.60;;;3.60;;
67156;SDS011;54086;50.126;8.710;2023-12-20T03:13:37;7.50;;;3.60;;
67156;SDS011;54086;50.126;8.710;2023-12-20T03:16:09;9.27;;;3.63;;
67156;SDS011;54086;50.126;8.710;2023-12-20T03:18:35;7.80;;;3.40;;
67156;SDS011;54086;50.126;8.710;2023-12-20T03:21:01;8.25;;;3.67;;
67156;SDS011;54086;50.126;8.710;2023-12-20T03:23:26;8.30;;;3.63;;
67156;SDS011;54086;50.126;8.710;2023-12-20T03:25:52;8.52;;;3.90;;
67156;SDS011;54086;50.126;8.710;2023-12-20T03:28:18;10.00;;;4.30;;
67156;SDS011;54086;50.126;8.710;2023-12-20T03:30:44;7.80;;;4.03;;
67156;SDS011;54086;50.126;8.710;2023-12-20T03:33:09;8.03;;;4.00;;
67156;SDS011;54086;50.126;8.710;2023-12-20T03:35:36;9.15;;;3.53;;
67156;SDS011;54086;50.126;8.710;2023-12-20T03:38:02;7.93;;;3.67;;
67156;SDS011;54086;50.126;8.710;2023-12-20T03:40:28;8.75;;;4.00;;
67156;SDS011;54086;50.126;8.710;2023-12-20T03:42:53;8.83;;;3.80;;
67156;SDS011;54086;50.126;8.710;2023-12-20T03:45:19;9.27;;;4.15;;
67156;SDS011;54086;50.126;8.710;2023-12-20T03:47:44;9.37;;;3.77;;
67156;SDS011;54086;50.126;8.710;2023-12-20T03:50:10;10.57;;;4.97;;
67156;SDS011;54086;50.126;8.710;2023-12-20T03:52:35;10.20;;;5.33;;
67156;SDS011;54086;50.126;8.710;2023-12-20T03:55:01;8.73;;;4.03;;
67156;SDS011;54086;50.126;8.710;2023-12-20T03:57:26;8.65;;;3.70;;
67156;SDS011;54086;50.126;8.710;2023-12-20T03:59:52;8.30;;;3.13;;
67156;SDS011;54086;50.126;8.710;2023-12-20T04:02:18;8.10;;;3.80;;
67156;SDS011;54086;50.126;8.710;2023-12-20T04:04:43;9.40;;;3.42;;
67156;SDS011;54086;50.126;8.710;2023-12-20T04:07:09;8.23;;;3.60;;
67156;SDS011;54086;50.126;8.710;2023-12-20T04:09:34;8.17;;;3.50;;
67156;SDS011;54086;50.126;8.710;2023-12-20T04:12:01;7.22;;;3.08;;
67156;SDS011;54086;50.126;8.710;2023-12-20T04:14:26;7.60;;;3.53;;
67156;SDS011;54086;50.126;8.710;2023-12-20T04:16:52;7.50;;;3.50;;
67156;SDS011;54086;50.126;8.710;2023-12-20T04:19:18;7.80;;;3.40;;
67156;SDS011;54086;50.126;8.710;2023-12-20T04:21:44;8.40;;;3.60;;
67156;SDS011;54086;50.126;8.710;2023-12-20T04:24:10;8.57;;;3.35;;
67156;SDS011;54086;50.126;8.710;2023-12-20T04:26:36;8.83;;;3.57;;
67156;SDS011;54086;50.126;8.710;2023-12-20T04:29:01;7.47;;;3.20;;
67156;SDS011;54086;50.126;8.710;2023-12-20T04:31:27;7.75;;;3.30;;
67156;SDS011;54086;50.126;8.710;2023-12-20T04:33:52;8.90;;;4.17;;
67156;SDS011;54086;50.126;8.710;2023-12-20T04:36:18;8.93;;;4.27;;
67156;SDS011;54086;50.126;8.710;2023-12-20T04:38:43;10.25;;;4.10;;
67156;SDS011;54086;50.126;8.710;2023-12-20T04:41:09;9.07;;;3.70;;
67156;SDS011;54086;50.126;8.710;2023-12-20T04:43:34;7.87;;;3.50;;
67156;SDS011;54086;50.126;8.710;2023-12-20T04:46:00;8.63;;;3.40;;
67156;SDS011;54086;50.126;8.710;2023-12-20T04:48:25;8.43;;;3.50;;
67156;SDS011;54086;50.126;8.710;2023-12-20T04:50:51;7.40;;;3.17;;
67156;SDS011;54086;50.126;8.710;2023-12-20T04:53:16;7.70;;;3.47;;
67156;SDS011;54086;50.126;8.710;2023-12-20T04:55:41;8.40;;;4.00;;
67156;SDS011;54086;50.126;8.710;2023-12-20T04:58:07;8.33;;;3.50;;
67156;SDS011;54086;50.126;8.710;2023-12-20T05:00:32;9.02;;;3.70;;
67156;SDS011;54086;50.126;8.710;2023-12-20T05:02:58;8.40;;;3.37;;
67156;SDS011;54086;50.126;8.710;2023-12-20T05:05:23;9.68;;;3.67;;
67156;SDS011;54086;50.126;8.710;2023-12-20T05:07:49;8.27;;;3.33;;
67156;SDS011;54086;50.126;8.710;2023-12-20T05:10:14;9.87;;;4.47;;
67156;SDS011;54086;50.126;8.710;2023-12-20T05:12:40;8.43;;;3.90;;
67156;SDS011;54086;50.126;8.710;2023-12-20T05:15:05;9.27;;;3.97;;
67156;SDS011;54086;50.126;8.710;2023-12-20T05:17:31;8.30;;;3.50;;
67156;SDS011;54086;50.126;8.710;2023-12-20T05:19:57;13.00;;;3.80;;
67156;SDS011;54086;50.126;8.710;2023-12-20T05:22:22;12.10;;;3.97;;
67156;SDS011;54086;50.126;8.710;2023-12-20T05:24:48;10.93;;;4.83;;
67156;SDS011;54086;50.126;8.710;2023-12-20T05:27:13;8.63;;;3.80;;
67156;SDS011;54086;50.126;8.710;2023-12-20T05:29:38;10.43;;;4.07;;
67156;SDS011;54086;50.126;8.710;2023-12-20T05:32:04;8.52;;;3.95;;
67156;SDS011;54086;50.126;8.710;2023-12-20T05:34:30;9.10;;;4.00;;
67156;SDS011;54086;50.126;8.710;2023-12-20T05:36:56;9.60;;;3.90;;
67156;SDS011;54086;50.126;8.710;2023-12-20T05:39:22;8.85;;;3.50;;
67156;SDS011;54086;50.126;8.710;2023-12-20T05:41:48;8.47;;;3.60;;
67156;SDS011;54086;50.126;8.710;2023-12-20T05:44:13;8.73;;;3.60;;
67156;SDS011;54086;50.126;8.710;2023-12-20T05:46:39;7.90;;;3.10;;
67156;SDS011;54086;50.126;8.710;2023-12-20T05:49:05;7.80;;;2.73;;
67156;SDS011;54086;50.126;8.710;2023-12-20T05:51:30;7.63;;;2.90;;
67156;SDS011;54086;50.126;8.710;2023-12-20T05:53:56;7.20;;;2.73;;
67156;SDS011;54086;50.126;8.710;2023-12-20T05:56:21;7.23;;;2.30;;
67156;SDS011;54086;50.126;8.710;2023-12-20T05:58:47;6.55;;;2.65;;
67156;SDS011;54086;50.126;8.710;2023-12-20T06:01:13;8.23;;;2.30;;
67156;SDS011;54086;50.126;8.710;2023-12-20T06:03:41;6.68;;;2.83;;
67156;SDS011;54086;50.126;8.710;2023-12-20T06:06:07;10.32;;;2.53;;
67156;SDS011;54086;50.126;8.710;2023-12-20T06:08:32;8.90;;;1.97;;
67156;SDS011;54086;50.126;8.710;2023-12-20T06:10:58;7.47;;;2.20;;
67156;SDS011;54086;50.126;8.710;2023-12-20T06:13:23;9.68;;;1.92;;
67156;SDS011;54086;50.126;8.710;2023-12-20T06:15:48;8.00;;;2.30;;
67156;SDS011;54086;50.126;8.710;2023-12-20T06:18:14;7.17;;;2.27;;
67156;SDS011;54086;50.126;8.710;2023-12-20T06:20:39;6.23;;;2.10;;
67156;SDS011;54086;50.126;8.710;2023-12-20T06:23:05;6.03;;;1.60;;
67156;SDS011;54086;50.126;8.710;2023-12-20T06:25:30;7.17;;;2.87;;
67156;SDS011;54086;50.126;8.710;2023-12-20T06:27:55;9.67;;;2.20;;
67156;SDS011;54086;50.126;8.710;2023-12-20T06:30:21;7.97;;;2.80;;
67156;SDS011;54086;50.126;8.710;2023-12-20T06:32:46;8.93;;;2.38;;
67156;SDS011;54086;50.126;8.710;2023-12-20T06:35:12;6.97;;;2.03;;
67156;SDS011;54086;50.126;8.710;2023-12-20T06:37:38;10.95;;;4.00;;
67156;SDS011;54086;50.126;8.710;2023-12-20T06:40:07;9.33;;;2.80;;
67156;SDS011;54086;50.126;8.710;2023-12-20T06:42:34;11.65;;;3.55;;
67156;SDS011;54086;50.126;8.710;2023-12-20T06:45:00;7.97;;;3.27;;
67156;SDS011;54086;50.126;8.710;2023-12-20T06:47:25;8.93;;;2.35;;
67156;SDS011;54086;50.126;8.710;2023-12-20T06:49:51;9.03;;;2.33;;
67156;SDS011;54086;50.126;8.710;2023-12-20T06:52:17;9.73;;;2.15;;
67156;SDS011;54086;50.126;8.710;2023-12-20T06:54:42;9.73;;;2.30;;
67156;SDS011;54086;50.126;8.710;2023-12-20T06:57:07;10.67;;;2.23;;
67156;SDS011;54086;50.126;8.710;2023-12-20T06:59:37;6.57;;;2.03;;
67156;SDS011;54086;50.126;8.710;2023-12-20T07:02:04;8.60;;;2.08;;
67156;SDS011;54086;50.126;8.710;2023-12-20T07:04:30;7.53;;;2.30;;
67156;SDS011;54086;50.126;8.710;2023-12-20T07:06:56;6.93;;;2.17;;
67156;SDS011;54086;50.126;8.710;2023-12-20T07:09:22;6.32;;;2.00;;
67156;SDS011;54086;50.126;8.710;2023-12-20T07:11:48;8.93;;;2.43;;
67156;SDS011;54086;50.126;8.710;2023-12-20T07:14:14;9.32;;;2.67;;
67156;SDS011;54086;50.126;8.710;2023-12-20T07:16:39;9.80;;;2.63;;
67156;SDS011;54086;50.126;8.710;2023-12-20T07:19:05;7.70;;;2.42;;
67156;SDS011;54086;50.126;8.710;2023-12-20T07:21:31;9.57;;;2.55;;
67156;SDS011;54086;50.126;8.710;2023-12-20T07:23:57;10.30;;;2.40;;
67156;SDS011;54086;50.126;8.710;2023-12-20T07:26:22;9.00;;;2.55;;
67156;SDS011;54086;50.126;8.710;2023-12-20T07:28:48;8.70;;;2.83;;
67156;SDS011;54086;50.126;8.710;2023-12-20T07:31:15;15.02;;;2.95;;
67156;SDS011;54086;50.126;8.710;2023-12-20T07:33:41;7.65;;;2.60;;
67156;SDS011;54086;50.126;8.710;2023-12-20T07:36:06;8.50;;;2.73;;
67156;SDS011;54086;50.126;8.710;2023-12-20T07:38:32;7.83;;;2.50;;
67156;SDS011;54086;50.126;8.710;2023-12-20T07:40:58;8.73;;;2.63;;
67156;SDS011;54086;50.126;8.710;2023-12-20T07:43:23;8.97;;;2.83;;
67156;SDS011;54086;50.126;8.710;2023-12-20T07:45:48;7.33;;;2.60;;
67156;SDS011;54086;50.126;8.710;2023-12-20T07:48:14;8.13;;;3.90;;
67156;SDS011;54086;50.126;8.710;2023-12-20T07:50:39;8.80;;;2.73;;
67156;SDS011;54086;50.126;8.710;2023-12-20T07:53:05;8.27;;;2.57;;
67156;SDS011;54086;50.126;8.710;2023-12-20T07:55:30;6.80;;;2.20;;
67156;SDS011;54086;50.126;8.710;2023-12-20T07:57:57;9.07;;;2.10;;
67156;SDS011;54086;50.126;8.710;2023-12-20T08:00:23;8.70;;;2.50;;
67156;SDS011;54086;50.126;8.710;2023-12-20T08:02:48;8.70;;;2.53;;
67156;SDS011;54086;50.126;8.710;2023-12-20T08:05:14;8.37;;;2.33;;
67156;SDS011;54086;50.126;8.710;2023-12-20T08:07:39;7.83;;;1.90;;
67156;SDS011;54086;50.126;8.710;2023-12-20T08:10:05;9.13;;;2.20;;
67156;SDS011;54086;50.126;8.710;2023-12-20T08:12:31;5.18;;;1.73;;
67156;SDS011;54086;50.126;8.710;2023-12-20T08:14:56;10.27;;;2.13;;
67156;SDS011;54086;50.126;8.710;2023-12-20T08:17:22;8.07;;;2.00;;
67156;SDS011;54086;50.126;8.710;2023-12-20T08:19:48;7.25;;;1.95;;
67156;SDS011;54086;50.126;8.710;2023-12-20T08:22:14;8.57;;;1.70;;
67156;SDS011;54086;50.126;8.710;2023-12-20T08:24:39;6.17;;;2.30;;
67156;SDS011;54086;50.126;8.710;2023-12-20T08:27:04;8.68;;;2.00;;
67156;SDS011;54086;50.126;8.710;2023-12-20T08:29:30;5.47;;;1.77;;
67156;SDS011;54086;50.126;8.710;2023-12-20T08:31:56;8.20;;;2.00;;
67156;SDS011;54086;50.126;8.710;2023-12-20T08:34:22;7.80;;;2.25;;
67156;SDS011;54086;50.126;8.710;2023-12-20T08:36:48;9.75;;;2.75;;
67156;SDS011;54086;50.126;8.710;2023-12-20T08:39:15;7.53;;;2.00;;
67156;SDS011;54086;50.126;8.710;2023-12-20T08:41:41;8.57;;;2.03;;
67156;SDS011;54086;50.126;8.710;2023-12-20T08:44:06;9.53;;;2.00;;
67156;SDS011;54086;50.126;8.710;2023-12-20T08:46:31;7.27;;;2.23;;
67156;SDS011;54086;50.126;8.710;2023-12-20T08:48:57;4.37;;;1.90;;
67156;SDS011;54086;50.126;8.710;2023-12-20T08:51:28;8.93;;;2.22;;
67156;SDS011;54086;50.126;8.710;2023-12-20T08:53:54;6.90;;;1.98;;
67156;SDS011;54086;50.126;8.710;2023-12-20T08:56:19;6.30;;;1.67;;
67156;SDS011;54086;50.126;8.710;2023-12-20T08:58:45;8.20;;;2.25;;
67156;SDS011;54086;50.126;8.710;2023-12-20T09:01:11;9.27;;;2.20;;
67156;SDS011;54086;50.126;8.710;2023-12-20T09:03:37;7.97;;;1.93;;
67156;SDS011;54086;50.126;8.710;2023-12-20T09:06:03;11.90;;;2.40;;
67156;SDS011;54086;50.126;8.710;2023-12-20T09:08:28;5.20;;;2.10;;
67156;SDS011;54086;50.126;8.710;2023-12-20T09:10:54;8.87;;;2.43;;
67156;SDS011;54086;50.126;8.710;2023-12-20T09:13:19;11.70;;;2.42;;
67156;SDS011;54086;50.126;8.710;2023-12-20T09:15:45;13.70;;;3.27;;
67156;SDS011;54086;50.126;8.710;2023-12-20T09:18:11;12.45;;;2.75;;
67156;SDS011;54086;50.126;8.710;2023-12-20T09:20:37;10.07;;;2.00;;
67156;SDS011;54086;50.126;8.710;2023-12-20T09:23:02;10.93;;;3.40;;
67156;SDS011;54086;50.126;8.710;2023-12-20T09:25:28;10.23;;;2.80;;
67156;SDS011;54086;50.126;8.710;2023-12-20T09:27:54;11.02;;;2.63;;
67156;SDS011;54086;50.126;8.710;2023-12-20T09:30:20;9.70;;;2.07;;
67156;SDS011;54086;50.126;8.710;2023-12-20T09:32:46;9.93;;;2.90;;
67156;SDS011;54086;50.126;8.710;2023-12-20T09:35:11;8.87;;;2.30;;
67156;SDS011;54086;50.126;8.710;2023-12-20T09:37:36;10.17;;;3.20;;
67156;SDS011;54086;50.126;8.710;2023-12-20T09:40:02;8.03;;;2.20;;
67156;SDS011;54086;50.126;8.710;2023-12-20T09:42:39;10.85;;;2.60;;
67156;SDS011;54086;50.126;8.710;2023-12-20T09:45:09;10.85;;;3.47;;
67156;SDS011;54086;50.126;8.710;2023-12-20T09:47:40;9.52;;;2.80;;
67156;SDS011;54086;50.126;8.710;2023-12-20T09:50:12;8.50;;;2.75;;
67156;SDS011;54086;50.126;8.710;2023-12-20T09:52:39;10.43;;;2.93;;
67156;SDS011;54086;50.126;8.710;2023-12-20T09:55:05;8.68;;;2.60;;
67156;SDS011;54086;50.126;8.710;2023-12-20T09:57:32;10.20;;;2.63;;
67156;SDS011;54086;50.126;8.710;2023-12-20T09:59:59;8.35;;;2.60;;
67156;SDS011;54086;50.126;8.710;2023-12-20T10:02:24;12.47;;;2.80;;
67156;SDS011;54086;50.126;8.710;2023-12-20T10:04:54;7.93;;;2.70;;
67156;SDS011;54086;50.126;8.710;2023-12-20T10:07:21;13.02;;;3.85;;
67156;SDS011;54086;50.126;8.710;2023-12-20T10:09:47;9.37;;;3.00;;
67156;SDS011;54086;50.126;8.710;2023-12-20T10:12:13;7.13;;;2.40;;
67156;SDS011;54086;50.126;8.710;2023-12-20T10:14:39;7.35;;;2.92;;
67156;SDS011;54086;50.126;8.710;2023-12-20T10:17:05;7.00;;;2.80;;
67156;SDS011;54086;50.126;8.710;2023-12-20T10:19:31;11.40;;;2.55;;
67156;SDS011;54086;50.126;8.710;2023-12-20T10:22:00;9.18;;;3.47;;
67156;SDS011;54086;50.126;8.710;2023-12-20T10:24:31;8.03;;;2.70;;
67156;SDS011;54086;50.126;8.710;2023-12-20T10:29:32;10.20;;;2.58;;
67156;SDS011;54086;50.126;8.710;2023-12-20T10:31:58;10.07;;;3.10;;
67156;SDS011;54086;50.126;8.710;2023-12-20T10:34:24;7.43;;;2.60;;
67156;SDS011;54086;50.126;8.710;2023-12-20T10:36:49;7.90;;;2.57;;
67156;SDS011;54086;50.126;8.710;2023-12-20T10:39:16;9.02;;;2.55;;
67156;SDS011;54086;50.126;8.710;2023-12-20T10:41:43;8.87;;;3.10;;
67156;SDS011;54086;50.126;8.710;2023-12-20T10:44:09;10.02;;;3.50;;
67156;SDS011;54086;50.126;8.710;2023-12-20T10:46:35;10.73;;;3.45;;
67156;SDS011;54086;50.126;8.710;2023-12-20T10:49:04;9.10;;;3.20;;
67156;SDS011;54086;50.126;8.710;2023-12-20T10:51:32;8.80;;;3.40;;
67156;SDS011;54086;50.126;8.710;2023-12-20T10:54:00;8.40;;;2.83;;
67156;SDS011;54086;50.126;8.710;2023-12-20T10:56:25;10.00;;;3.28;;
67156;SDS011;54086;50.126;8.710;2023-12-20T10:58:57;12.30;;;3.08;;
67156;SDS011;54086;50.126;8.710;2023-12-20T11:01:27;10.50;;;2.77;;
67156;SDS011;54086;50.126;8.710;2023-12-20T11:03:54;12.23;;;2.63;;
67156;SDS011;54086;50.126;8.710;2023-12-20T11:17:10;11.35;;;3.42;;
67156;SDS011;54086;50.126;8.710;2023-12-20T11:22:26;8.38;;;2.25;;
67156;SDS011;54086;50.126;8.710;2023-12-20T11:24:53;9.77;;;2.70;;
67156;SDS011;54086;50.126;8.710;2023-12-20T11:27:20;9.35;;;3.53;;
67156;SDS011;54086;50.126;8.710;2023-12-20T11:29:57;8.45;;;2.95;;
67156;SDS011;54086;50.126;8.710;2023-12-20T11:34:58;9.50;;;3.15;;
67156;SDS011;54086;50.126;8.710;2023-12-20T11:37:28;11.20;;;3.08;;
67156;SDS011;54086;50.126;8.710;2023-12-20T11:40:04;12.00;;;3.80;;
67156;SDS011;54086;50.126;8.710;2023-12-20T11:42:41;14.55;;;4.88;;
67156;SDS011;54086;50.126;8.710;2023-12-20T11:45:09;9.57;;;2.40;;
67156;SDS011;54086;50.126;8.710;2023-12-20T11:47:39;11.40;;;3.22;;
67156;SDS011;54086;50.126;8.710;2023-12-20T11:50:06;8.55;;;2.20;;
67156;SDS011;54086;50.126;8.710;2023-12-20T11:52:32;9.20;;;2.55;;
67156;SDS011;54086;50.126;8.710;2023-12-20T11:54:57;7.73;;;2.20;;
67156;SDS011;54086;50.126;8.710;2023-12-20T11:57:23;11.47;;;2.40;;
67156;SDS011;54086;50.126;8.710;2023-12-20T11:59:49;8.35;;;2.28;;
67156;SDS011;54086;50.126;8.710;2023-12-20T12:02:15;12.93;;;3.33;;
67156;SDS011;54086;50.126;8.710;2023-12-20T12:04:41;10.73;;;3.60;;
67156;SDS011;54086;50.126;8.710;2023-12-20T12:07:07;10.35;;;2.65;;
67156;SDS011;54086;50.126;8.710;2023-12-20T12:09:32;11.23;;;2.73;;
67156;SDS011;54086;50.126;8.710;2023-12-20T12:11:58;8.85;;;2.50;;
67156;SDS011;54086;50.126;8.710;2023-12-20T12:14:24;9.68;;;2.38;;
67156;SDS011;54086;50.126;8.710;2023-12-20T12:16:50;9.37;;;2.30;;
67156;SDS011;54086;50.126;8.710;2023-12-20T12:19:23;11.43;;;2.47;;
67156;SDS011;54086;50.126;8.710;2023-12-20T12:21:50;8.85;;;2.47;;
67156;SDS011;54086;50.126;8.710;2023-12-20T12:24:19;8.80;;;2.53;;
67156;SDS011;54086;50.126;8.710;2023-12-20T12:26:49;7.82;;;2.60;;
67156;SDS011;54086;50.126;8.710;2023-12-20T12:29:16;10.77;;;3.05;;
67156;SDS011;54086;50.126;8.710;2023-12-20T12:31:55;10.20;;;2.75;;
67156;SDS011;54086;50.126;8.710;2023-12-20T12:34:22;15.38;;;3.30;;
67156;SDS011;54086;50.126;8.710;2023-12-20T12:36:48;10.07;;;2.77;;
67156;SDS011;54086;50.126;8.710;2023-12-20T12:39:13;11.48;;;2.42;;
67156;SDS011;54086;50.126;8.710;2023-12-20T12:41:42;9.52;;;2.40;;
67156;SDS011;54086;50.126;8.710;2023-12-20T12:44:07;7.67;;;1.97;;
67156;SDS011;54086;50.126;8.710;2023-12-20T12:46:33;9.13;;;2.10;;
67156;SDS011;54086;50.126;8.710;2023-12-20T12:48:58;13.52;;;2.33;;
67156;SDS011;54086;50.126;8.710;2023-12-20T12:51:24;9.10;;;2.40;;
67156;SDS011;54086;50.126;8.710;2023-12-20T12:53:49;6.33;;;1.80;;
67156;SDS011;54086;50.126;8.710;2023-12-20T12:56:21;7.30;;;2.00;;
67156;SDS011;54086;50.126;8.710;2023-12-20T12:58:47;10.02;;;2.28;;
67156;SDS011;54086;50.126;8.710;2023-12-20T13:01:13;8.75;;;2.03;;
67156;SDS011;54086;50.126;8.710;2023-12-20T13:03:39;10.17;;;2.17;;
67156;SDS011;54086;50.126;8.710;2023-12-20T13:06:05;9.80;;;1.88;;
67156;SDS011;54086;50.126;8.710;2023-12-20T13:08:33;8.40;;;2.00;;
67156;SDS011;54086;50.126;8.710;2023-12-20T13:10:59;10.30;;;2.40;;
67156;SDS011;54086;50.126;8.710;2023-12-20T13:13:26;8.55;;;2.50;;
67156;SDS011;54086;50.126;8.710;2023-12-20T13:15:52;10.77;;;2.35;;
67156;SDS011;54086;50.126;8.710;2023-12-20T13:18:20;11.63;;;2.80;;
67156;SDS011;54086;50.126;8.710;2023-12-20T13:20:50;9.75;;;2.90;;
67156;SDS011;54086;50.126;8.710;2023-12-20T13:23:16;9.67;;;2.80;;
67156;SDS011;54086;50.126;8.710;2023-12-20T13:25:43;6.15;;;1.98;;
67156;SDS011;54086;50.126;8.710;2023-12-20T13:28:10;10.13;;;2.65;;
67156;SDS011;54086;50.126;8.710;2023-12-20T13:30:36;8.80;;;2.80;;
67156;SDS011;54086;50.126;8.710;2023-12-20T13:33:20;13.82;;;3.80;;
67156;SDS011;54086;50.126;8.710;2023-12-20T13:35:49;7.68;;;1.88;;
67156;SDS011;54086;50.126;8.710;2023-12-20T13:38:15;7.70;;;1.90;;
67156;SDS011;54086;50.126;8.710;2023-12-20T13:40:43;7.70;;;2.22;;
67156;SDS011;54086;50.126;8.710;2023-12-20T13:43:09;7.53;;;1.80;;
67156;SDS011;54086;50.126;8.710;2023-12-20T13:45:36;6.82;;;2.10;;
67156;SDS011;54086;50.126;8.710;2023-12-20T13:48:02;7.67;;;2.43;;
67156;SDS011;54086;50.126;8.710;2023-12-20T13:50:31;7.55;;;2.22;;
67156;SDS011;54086;50.126;8.710;2023-12-20T13:52:57;6.55;;;2.20;;
67156;SDS011;54086;50.126;8.710;2023-12-20T13:55:22;9.90;;;2.90;;
67156;SDS011;54086;50.126;8.710;2023-12-20T13:57:50;8.63;;;2.42;;
67156;SDS011;54086;50.126;8.710;2023-12-20T14:00:16;10.13;;;3.17;;
67156;SDS011;54086;50.126;8.710;2023-12-20T14:02:43;9.90;;;2.90;;
67156;SDS011;54086;50.126;8.710;2023-12-20T14:05:14;7.43;;;2.42;;
67156;SDS011;54086;50.126;8.710;2023-12-20T14:07:42;8.50;;;2.65;;
67156;SDS011;54086;50.126;8.710;2023-12-20T14:10:14;8.17;;;2.50;;
67156;SDS011;54086;50.126;8.710;2023-12-20T14:12:43;9.48;;;2.50;;
67156;SDS011;54086;50.126;8.710;2023-12-20T14:15:10;9.80;;;2.28;;
67156;SDS011;54086;50.126;8.710;2023-12-20T14:17:40;10.65;;;3.30;;
67156;SDS011;54086;50.126;8.710;2023-12-20T14:20:15;7.55;;;2.38;;
67156;SDS011;54086;50.126;8.710;2023-12-20T14:22:41;7.70;;;2.30;;
67156;SDS011;54086;50.126;8.710;2023-12-20T14:25:12;8.50;;;2.20;;
67156;SDS011;54086;50.126;8.710;2023-12-20T14:27:39;7.53;;;2.60;;
67156;SDS011;54086;50.126;8.710;2023-12-20T14:30:07;7.88;;;2.17;;
67156;SDS011;54086;50.126;8.710;2023-12-20T14:32:34;7.47;;;2.47;;
67156;SDS011;54086;50.126;8.710;2023-12-20T14:35:03;7.05;;;2.28;;
67156;SDS011;54086;50.126;8.710;2023-12-20T14:37:42;7.88;;;2.10;;
67156;SDS011;54086;50.126;8.710;2023-12-20T14:40:20;8.90;;;1.92;;
67156;SDS011;54086;50.126;8.710;2023-12-20T14:42:47;6.30;;;2.03;;
67156;SDS011;54086;50.126;8.710;2023-12-20T14:45:13;7.87;;;2.00;;
67156;SDS011;54086;50.126;8.710;2023-12-20T14:47:41;7.80;;;1.77;;
67156;SDS011;54086;50.126;8.710;2023-12-20T14:50:06;7.07;;;2.00;;
67156;SDS011;54086;50.126;8.710;2023-12-20T14:52:32;8.00;;;2.00;;
67156;SDS011;54086;50.126;8.710;2023-12-20T14:55:02;9.27;;;2.30;;
67156;SDS011;54086;50.126;8.710;2023-12-20T14:57:28;5.75;;;1.70;;